Time;durP1;ratioP1;P1;durP2;ratioP2;P2;SDS_P1;SDS_P2;PMS_P1;PMS_P2;Temp;Humidity;BMP_temperature;BMP_pressure;BME280_temperature;BME280_humidity;BME280_pressure;Samples;Min_cycle;Max_cycle;Signal;HPM_P1;HPM_P2
2022/11/27 00:01:55;;;;;;;0.10;0.10;;;;;;;13.52;62.02;100024.78;7361186;19;20981;-58
2022/11/27 00:04:20;;;;;;;0.10;0.10;;;;;;;13.52;61.70;100020.41;7362549;19;20090;-58
2022/11/27 00:06:45;;;;;;;0.10;0.10;;;;;;;13.53;61.82;100027.34;7357722;19;20025;-59
2022/11/27 00:09:14;;;;;;;0.10;0.10;;;;;;;13.44;61.71;100007.66;7357354;19;20011;-58
2022/11/27 00:11:39;;;;;;;0.05;0.05;;;;;;;13.56;62.01;100016.72;7353511;19;20381;-59
2022/11/27 00:14:06;;;;;;;0.10;0.10;;;;;;;13.57;62.30;100044.66;7355202;19;20014;-58
2022/11/27 00:16:31;;;;;;;0.10;0.10;;;;;;;13.56;62.08;100042.94;7358524;19;20826;-58
2022/11/27 00:18:57;;;;;;;0.10;0.10;;;;;;;13.52;61.55;100030.88;7356765;19;20038;-59
2022/11/27 00:21:25;;;;;;;0.10;0.10;;;;;;;13.46;62.21;100018.06;7358046;19;20043;-57
2022/11/27 00:23:52;;;;;;;0.10;0.10;;;;;;;13.49;61.90;100036.28;7361857;19;20347;-58
2022/11/27 00:26:19;;;;;;;0.00;0.00;;;;;;;13.51;61.57;100039.69;7363229;19;20017;-58
2022/11/27 00:28:44;;;;;;;0.03;0.03;;;;;;;13.43;61.65;100034.81;7362713;19;20070;-57
2022/11/27 00:31:14;;;;;;;0.10;0.10;;;;;;;13.48;61.48;100045.06;7364735;19;20835;-58
2022/11/27 00:33:39;;;;;;;0.10;0.10;;;;;;;13.43;61.23;100052.28;7358261;19;20757;-59
2022/11/27 00:36:07;;;;;;;0.05;0.05;;;;;;;13.39;61.73;100046.34;7364304;19;20042;-59
2022/11/27 00:38:33;;;;;;;0.10;0.10;;;;;;;13.37;60.85;100055.19;7362910;19;20018;-58
2022/11/27 00:41:05;;;;;;;0.10;0.10;;;;;;;13.35;61.98;100065.75;7364587;19;20022;-59
2022/11/27 00:43:30;;;;;;;0.10;0.10;;;;;;;13.32;61.01;100072.91;7364029;19;20029;-58
2022/11/27 00:45:55;;;;;;;0.00;0.00;;;;;;;13.27;61.20;100067.00;7364800;19;20019;-57
2022/11/27 00:48:21;;;;;;;0.00;0.00;;;;;;;13.26;61.12;100063.53;7361073;19;20010;-59
2022/11/27 00:50:46;;;;;;;0.08;0.08;;;;;;;13.26;61.44;100091.53;7362478;19;20388;-59
2022/11/27 00:53:12;;;;;;;0.10;0.10;;;;;;;13.22;62.04;100078.53;7360866;19;21123;-59
2022/11/27 00:55:37;;;;;;;0.00;0.00;;;;;;;13.20;61.57;100082.97;7365126;19;20011;-59
2022/11/27 00:58:02;;;;;;;0.00;0.00;;;;;;;13.18;61.20;100099.69;7365046;19;21074;-55
2022/11/27 01:00:28;;;;;;;0.00;0.00;;;;;;;13.17;61.38;100101.44;7363329;19;20039;-59
2022/11/27 01:02:53;;;;;;;0.10;0.10;;;;;;;13.15;61.65;100111.16;7364916;19;20007;-59
2022/11/27 01:05:19;;;;;;;0.00;0.00;;;;;;;13.12;61.65;100115.66;7365087;19;20014;-59
2022/11/27 01:07:44;;;;;;;0.10;0.10;;;;;;;13.08;61.30;100112.34;7365076;19;20025;-58
2022/11/27 01:10:10;;;;;;;0.10;0.10;;;;;;;13.07;61.69;100118.47;7363711;19;20085;-58
2022/11/27 01:12:35;;;;;;;0.10;0.10;;;;;;;13.04;61.11;100108.16;7362638;19;20014;-58
2022/11/27 01:15:01;;;;;;;0.10;0.10;;;;;;;13.01;61.71;100129.22;7362791;19;20010;-58
2022/11/27 01:17:26;;;;;;;0.10;0.10;;;;;;;12.99;61.21;100138.94;7365311;19;20019;-58
2022/11/27 01:19:52;;;;;;;0.00;0.00;;;;;;;12.99;62.18;100146.81;7365358;19;20031;-59
2022/11/27 01:22:17;;;;;;;0.10;0.10;;;;;;;12.84;61.31;100116.00;7362943;19;20014;-58
2022/11/27 01:24:43;;;;;;;0.10;0.10;;;;;;;12.93;61.76;100131.34;7365743;19;20056;-59
2022/11/27 01:27:08;;;;;;;0.00;0.00;;;;;;;12.91;62.00;100144.47;7365928;19;20010;-58
2022/11/27 01:29:33;;;;;;;0.00;0.00;;;;;;;12.86;61.97;100122.84;7365121;19;25054;-58
2022/11/27 01:31:59;;;;;;;0.00;0.00;;;;;;;12.88;61.71;100133.28;7363870;19;20014;-58
2022/11/27 01:34:24;;;;;;;0.10;0.10;;;;;;;12.86;62.14;100129.88;7366004;19;20006;-58
2022/11/27 01:36:50;;;;;;;0.10;0.10;;;;;;;12.83;62.06;100135.25;7362661;19;20011;-58
2022/11/27 01:39:18;;;;;;;0.10;0.10;;;;;;;12.82;61.82;100138.75;7361251;19;21159;-59
2022/11/27 01:41:44;;;;;;;0.00;0.00;;;;;;;12.78;62.08;100131.97;7362592;19;20840;-58
2022/11/27 01:44:24;;;;;;;0.00;0.00;;;;;;;12.79;62.17;100144.16;7365953;19;20067;-59
2022/11/27 01:46:56;;;;;;;0.00;0.00;;;;;;;12.77;62.38;100151.19;7364574;19;20010;-58
2022/11/27 01:49:43;;;;;;;0.10;0.10;;;;;;;12.73;61.93;100148.72;7364553;19;20040;-58
2022/11/27 01:52:14;;;;;;;0.03;0.03;;;;;;;12.70;61.74;100156.69;7364067;19;20014;-58
2022/11/27 01:54:46;;;;;;;0.10;0.10;;;;;;;12.68;61.93;100152.44;7363048;19;20022;-57
2022/11/27 01:57:18;;;;;;;0.10;0.10;;;;;;;12.66;61.59;100160.34;7359219;19;20638;-57
2022/11/27 01:59:46;;;;;;;0.10;0.10;;;;;;;12.53;61.68;100145.19;7363797;19;20426;-58
2022/11/27 02:02:12;;;;;;;0.10;0.10;;;;;;;12.56;61.96;100152.91;7362806;19;20010;-58
2022/11/27 02:04:38;;;;;;;0.10;0.10;;;;;;;12.59;61.88;100158.03;7361700;19;20561;-59
2022/11/27 02:07:03;;;;;;;0.00;0.00;;;;;;;12.57;62.05;100159.84;7362056;19;20006;-59
2022/11/27 02:09:30;;;;;;;0.10;0.10;;;;;;;12.56;61.82;100153.75;7364560;19;20489;-58
2022/11/27 02:12:23;;;;;;;0.00;0.00;;;;;;;12.57;62.57;100159.84;7363553;19;20028;-58
2022/11/27 02:14:49;;;;;;;0.10;0.10;;;;;;;12.53;62.21;100164.38;7260351;19;2004651;-58
2022/11/27 02:17:23;;;;;;;0.10;0.10;;;;;;;12.54;62.55;100160.84;7362694;19;20026;-58
2022/11/27 02:20:10;;;;;;;0.00;0.00;;;;;;;12.50;62.26;100161.88;7362584;19;20006;-59
2022/11/27 02:22:41;;;;;;;0.00;0.00;;;;;;;12.50;62.43;100179.34;7362454;19;20011;-57
2022/11/27 02:25:10;;;;;;;0.10;0.10;;;;;;;12.48;62.46;100179.41;7361826;19;20006;-59
2022/11/27 02:27:44;;;;;;;0.10;0.10;;;;;;;12.44;62.30;100164.72;7368279;19;20025;-59
2022/11/27 02:30:10;;;;;;;0.10;0.10;;;;;;;12.40;62.14;100163.13;7365482;19;20006;-59
2022/11/27 02:32:36;;;;;;;0.00;0.00;;;;;;;12.40;62.60;100160.53;7369062;19;20018;-58
2022/11/27 02:35:22;;;;;;;0.00;0.00;;;;;;;12.40;62.70;100157.91;7371042;19;20010;-57
2022/11/27 02:37:57;;;;;;;0.10;0.10;;;;;;;12.39;62.86;100150.97;7368240;19;20011;-58
2022/11/27 02:40:43;;;;;;;0.00;0.00;;;;;;;12.25;63.05;100121.84;7369343;19;20007;-57
2022/11/27 02:43:13;;;;;;;0.00;0.00;;;;;;;12.34;62.57;100142.44;7367189;19;20026;-58
2022/11/27 02:45:43;;;;;;;0.10;0.10;;;;;;;12.32;62.82;100139.03;7367706;19;20030;-58
2022/11/27 02:48:11;;;;;;;0.00;0.00;;;;;;;12.30;62.55;100151.31;7369828;19;20038;-58
2022/11/27 02:50:39;;;;;;;0.00;0.00;;;;;;;12.30;62.58;100161.78;7368813;19;20017;-58
2022/11/27 02:53:09;;;;;;;0.10;0.10;;;;;;;12.28;62.73;100145.31;7369162;19;20010;-58
2022/11/27 02:55:39;;;;;;;0.10;0.10;;;;;;;12.24;62.93;100143.72;7367567;19;20614;-59
2022/11/27 02:58:09;;;;;;;0.10;0.10;;;;;;;12.24;63.20;100154.19;7359546;19;20015;-58
2022/11/27 03:00:36;;;;;;;0.00;0.00;;;;;;;12.22;62.63;100156.88;7368328;19;20028;-58
2022/11/27 03:03:07;;;;;;;0.00;0.00;;;;;;;12.22;62.79;100158.63;7364040;19;20446;-59
2022/11/27 03:05:37;;;;;;;0.10;0.10;;;;;;;12.19;62.74;100157.81;7364154;19;20601;-60
2022/11/27 03:08:21;;;;;;;0.03;0.03;;;;;;;12.19;62.72;100165.66;7365353;19;20449;-58
2022/11/27 03:10:59;;;;;;;0.00;0.00;;;;;;;12.11;62.85;100148.53;7366501;19;20081;-59
2022/11/27 03:13:25;;;;;;;0.05;0.05;;;;;;;12.06;62.69;100161.78;7364363;19;20006;-58
2022/11/27 03:16:09;;;;;;;0.10;0.10;;;;;;;12.18;62.73;100161.34;7367881;19;20011;-59
2022/11/27 03:18:42;;;;;;;0.00;0.00;;;;;;;12.06;62.32;100143.47;7363397;19;20022;-58
2022/11/27 03:21:25;;;;;;;0.10;0.10;;;;;;;12.15;62.70;100158.84;7367348;19;20014;-57
2022/11/27 03:23:50;;;;;;;0.00;0.00;;;;;;;12.12;62.28;100153.75;7366609;19;20053;-57
2022/11/27 03:26:16;;;;;;;0.10;0.10;;;;;;;12.12;62.81;100153.75;7367529;19;20015;-58
2022/11/27 03:28:44;;;;;;;0.00;0.00;;;;;;;12.12;62.24;100153.75;7364422;19;20014;-58
2022/11/27 03:31:09;;;;;;;0.10;0.10;;;;;;;12.10;62.16;100160.78;7365240;19;20010;-59
2022/11/27 03:33:35;;;;;;;0.10;0.10;;;;;;;12.08;62.68;100151.28;7366665;19;20013;-57
2022/11/27 03:36:00;;;;;;;0.10;0.10;;;;;;;12.08;62.64;100162.63;7367046;19;20014;-59
2022/11/27 03:38:26;;;;;;;0.10;0.10;;;;;;;12.08;62.82;100161.75;7366282;19;20439;-57
2022/11/27 03:41:02;;;;;;;0.00;0.00;;;;;;;12.08;62.63;100167.84;7368413;19;20857;-59
2022/11/27 03:43:35;;;;;;;0.00;0.00;;;;;;;12.05;62.06;100173.19;7362473;19;20021;-58
2022/11/27 03:46:18;;;;;;;0.10;0.10;;;;;;;12.08;62.20;100173.06;7367644;19;20032;-58
2022/11/27 03:49:08;;;;;;;0.00;0.00;;;;;;;12.07;62.37;100179.22;7365376;19;20042;-57
2022/11/27 03:51:49;;;;;;;0.10;0.10;;;;;;;12.06;62.51;100166.19;7362986;19;20664;-58
2022/11/27 03:54:29;;;;;;;0.10;0.10;;;;;;;12.05;62.47;100167.09;7364582;19;20465;-58
2022/11/27 03:57:08;;;;;;;0.00;0.00;;;;;;;12.05;62.22;100177.56;7366379;19;20010;-58
2022/11/27 03:59:38;;;;;;;0.08;0.08;;;;;;;11.98;61.97;100170.88;7363605;19;20466;-58
2022/11/27 04:02:04;;;;;;;0.10;0.10;;;;;;;11.90;61.91;100163.28;7364528;19;20025;-58
2022/11/27 04:04:29;;;;;;;0.00;0.00;;;;;;;11.96;62.09;100189.22;7354427;19;20010;-59
2022/11/27 04:06:54;;;;;;;0.00;0.00;;;;;;;11.93;62.08;100179.72;7367248;19;20011;-58
2022/11/27 04:09:20;;;;;;;0.00;0.00;;;;;;;11.92;61.91;100188.50;7366574;19;20035;-58
2022/11/27 04:11:45;;;;;;;0.10;0.10;;;;;;;11.90;62.24;100198.13;7366370;19;20017;-58
2022/11/27 04:14:11;;;;;;;0.00;0.00;;;;;;;11.89;62.51;100198.22;7363113;19;20003;-59
2022/11/27 04:16:36;;;;;;;0.10;0.10;;;;;;;11.86;62.05;100190.47;7366363;19;20047;-58
2022/11/27 04:19:02;;;;;;;0.00;0.00;;;;;;;11.76;62.05;100181.19;7362329;19;20856;-58
2022/11/27 04:21:27;;;;;;;0.10;0.10;;;;;;;11.80;62.53;100194.13;7364243;19;20119;-58
2022/11/27 04:23:52;;;;;;;0.10;0.10;;;;;;;11.74;62.39;100183.03;7366478;19;20450;-58
2022/11/27 04:26:18;;;;;;;0.00;0.00;;;;;;;11.79;62.19;100196.81;7367923;19;20014;-58
2022/11/27 04:28:43;;;;;;;0.00;0.00;;;;;;;11.73;62.38;100197.03;7365578;19;20010;-59
2022/11/27 04:31:09;;;;;;;0.00;0.00;;;;;;;11.76;62.35;100202.13;7365516;19;20816;-58
2022/11/27 04:33:34;;;;;;;0.00;0.00;;;;;;;11.69;62.44;100204.97;7365256;19;20031;-58
2022/11/27 04:35:59;;;;;;;0.00;0.00;;;;;;;11.53;62.20;100175.03;7365326;19;20024;-58
2022/11/27 04:38:25;;;;;;;0.08;0.08;;;;;;;11.69;61.95;100204.97;7367301;19;20003;-57
2022/11/27 04:40:52;;;;;;;0.00;0.00;;;;;;;11.67;62.37;100204.19;7367978;19;20007;-59
2022/11/27 04:43:17;;;;;;;0.00;0.00;;;;;;;11.65;62.32;100205.97;7366334;19;20018;-58
2022/11/27 04:45:43;;;;;;;0.00;0.00;;;;;;;11.50;61.87;100185.59;7363494;19;20011;-56
2022/11/27 04:48:08;;;;;;;0.10;0.10;;;;;;;11.62;62.19;100206.09;7366267;19;20845;-58
2022/11/27 04:50:34;;;;;;;0.10;0.10;;;;;;;11.62;62.27;100215.72;7365358;19;20039;-59
2022/11/27 04:52:59;;;;;;;0.10;0.10;;;;;;;11.60;61.56;100207.91;7366400;19;20074;-57
2022/11/27 04:55:24;;;;;;;0.00;0.00;;;;;;;11.58;61.56;100209.72;7366507;19;20011;-58
2022/11/27 04:57:50;;;;;;;0.00;0.00;;;;;;;11.59;61.47;100211.44;7365951;19;20773;-58
2022/11/27 05:00:16;;;;;;;0.10;0.10;;;;;;;11.57;61.51;100209.78;7366731;19;20014;-58
2022/11/27 05:02:41;;;;;;;0.00;0.00;;;;;;;11.53;61.68;100216.03;7364992;19;20011;-58
2022/11/27 05:05:07;;;;;;;0.10;0.10;;;;;;;11.42;62.04;100198.09;7367836;19;20018;-57
2022/11/27 05:07:33;;;;;;;0.00;0.00;;;;;;;11.52;61.75;100207.31;7366939;19;20708;-59
2022/11/27 05:09:58;;;;;;;0.10;0.10;;;;;;;11.39;62.21;100204.25;7364856;19;20002;-58
2022/11/27 05:12:24;;;;;;;0.00;0.00;;;;;;;11.49;62.20;100210.03;7367109;19;20018;-59
2022/11/27 05:14:49;;;;;;;0.00;0.00;;;;;;;11.45;61.80;100205.81;7365595;19;20014;-59
2022/11/27 05:17:15;;;;;;;0.10;0.10;;;;;;;11.49;61.97;100211.81;7364209;19;20644;-58
2022/11/27 05:19:40;;;;;;;0.00;0.00;;;;;;;11.43;62.33;100205.03;7364753;19;20003;-59
2022/11/27 05:22:06;;;;;;;0.03;0.03;;;;;;;11.44;61.94;100211.94;7365599;19;20011;-59
2022/11/27 05:24:31;;;;;;;0.10;0.10;;;;;;;11.26;62.04;100189.06;7365605;19;20636;-57
2022/11/27 05:26:56;;;;;;;0.10;0.10;;;;;;;11.41;62.09;100222.53;7367372;19;20013;-58
2022/11/27 05:29:23;;;;;;;0.10;0.10;;;;;;;11.39;61.93;100208.63;7366348;19;20002;-59
2022/11/27 05:31:49;;;;;;;0.00;0.00;;;;;;;11.36;62.04;100216.59;7363497;19;20014;-58
2022/11/27 05:34:14;;;;;;;0.10;0.10;;;;;;;11.30;62.57;100208.94;7364840;19;19999;-58
2022/11/27 05:36:41;;;;;;;0.00;0.00;;;;;;;11.32;62.42;100207.16;7366536;19;20014;-58
2022/11/27 05:39:07;;;;;;;0.00;0.00;;;;;;;11.29;62.37;100209.84;7366155;19;20102;-59
2022/11/27 05:41:34;;;;;;;0.00;0.00;;;;;;;11.24;62.43;100206.53;7365790;19;20011;-57
2022/11/27 05:43:59;;;;;;;0.00;0.00;;;;;;;11.23;62.73;100215.28;7366279;19;20026;-58
2022/11/27 05:46:25;;;;;;;0.00;0.00;;;;;;;11.22;62.57;100216.22;7365485;19;20851;-56
2022/11/27 05:48:50;;;;;;;0.10;0.10;;;;;;;11.13;62.35;100207.75;7362887;19;20888;-58
2022/11/27 05:51:16;;;;;;;0.10;0.10;;;;;;;11.17;62.59;100217.22;7365685;19;20032;-58
2022/11/27 05:53:41;;;;;;;0.00;0.00;;;;;;;11.14;63.03;100214.69;7364155;19;20082;-58
2022/11/27 05:56:10;;;;;;;0.00;0.00;;;;;;;11.12;62.78;100213.03;7366277;19;20458;-58
2022/11/27 05:58:36;;;;;;;0.10;0.10;;;;;;;11.08;62.89;100212.28;7364532;19;20014;-58
2022/11/27 06:01:03;;;;;;;0.10;0.10;;;;;;;11.06;63.13;100211.47;7363760;19;20025;-59
2022/11/27 06:03:29;;;;;;;0.00;0.00;;;;;;;11.05;63.24;100219.34;7364546;19;20336;-58
2022/11/27 06:05:54;;;;;;;0.00;0.00;;;;;;;11.02;63.37;100215.09;7363404;19;20010;-58
2022/11/27 06:08:20;;;;;;;0.00;0.00;;;;;;;10.99;63.68;100215.19;7365413;19;20018;-58
2022/11/27 06:10:46;;;;;;;0.00;0.00;;;;;;;10.98;63.14;100210.88;7365687;19;20010;-57
2022/11/27 06:13:12;;;;;;;0.10;0.10;;;;;;;10.83;63.63;100193.91;7363529;19;20378;-58
2022/11/27 06:15:39;;;;;;;0.00;0.00;;;;;;;10.93;63.42;100204.09;7366068;19;20047;-58
2022/11/27 06:18:05;;;;;;;0.00;0.00;;;;;;;10.91;63.77;100211.97;7364639;19;20406;-57
2022/11/27 06:20:30;;;;;;;0.10;0.10;;;;;;;10.85;63.58;100199.13;7364099;19;20355;-57
2022/11/27 06:22:56;;;;;;;0.10;0.10;;;;;;;10.86;63.41;100198.22;7364056;19;20011;-59
2022/11/27 06:25:22;;;;;;;0.10;0.10;;;;;;;10.82;63.76;100196.59;7361847;19;20026;-55
2022/11/27 06:27:48;;;;;;;0.00;0.00;;;;;;;10.80;64.01;100207.09;7363121;19;20501;-58
2022/11/27 06:30:14;;;;;;;0.10;0.10;;;;;;;10.78;64.10;100205.41;7363629;19;20022;-59
2022/11/27 06:32:39;;;;;;;0.10;0.10;;;;;;;10.63;64.14;100181.50;7363392;19;20377;-58
2022/11/27 06:35:05;;;;;;;0.00;0.00;;;;;;;10.70;63.87;100197.84;7362202;19;20006;-58
2022/11/27 06:37:31;;;;;;;0.00;0.00;;;;;;;10.65;64.18;100189.28;7361860;19;20819;-58
2022/11/27 06:39:56;;;;;;;0.10;0.10;;;;;;;10.70;64.26;100212.66;7362619;19;20021;-59
2022/11/27 06:42:21;;;;;;;0.00;0.00;;;;;;;10.68;64.53;100209.22;7364420;19;20030;-58
2022/11/27 06:44:47;;;;;;;0.00;0.00;;;;;;;10.61;64.81;100193.75;7360791;19;20576;-58
2022/11/27 06:47:12;;;;;;;0.00;0.00;;;;;;;10.64;64.88;100213.66;7364419;19;20010;-58
2022/11/27 06:49:38;;;;;;;0.08;0.08;;;;;;;10.60;64.85;100202.50;7362889;19;20030;-58
2022/11/27 06:52:03;;;;;;;0.00;0.00;;;;;;;10.60;64.81;100206.88;7364452;19;20011;-58
2022/11/27 06:54:29;;;;;;;0.00;0.00;;;;;;;10.57;64.51;100199.97;7362448;19;20031;-58
2022/11/27 06:56:54;;;;;;;0.00;0.00;;;;;;;10.57;64.83;100202.56;7363559;19;20018;-59
2022/11/27 06:59:23;;;;;;;0.08;0.08;;;;;;;10.58;64.79;100214.72;7355690;19;20047;-58
2022/11/27 07:01:48;;;;;;;0.00;0.00;;;;;;;10.44;65.26;100179.50;7361915;19;20010;-58
2022/11/27 07:04:14;;;;;;;0.10;0.10;;;;;;;10.56;65.01;100206.09;7362962;19;20037;-59
2022/11/27 07:06:41;;;;;;;0.00;0.00;;;;;;;10.56;65.64;100200.88;7361395;19;20006;-58
2022/11/27 07:09:07;;;;;;;0.00;0.00;;;;;;;10.49;65.45;100199.34;7364320;19;20026;-57
2022/11/27 07:11:33;;;;;;;0.00;0.00;;;;;;;10.54;65.41;100197.47;7360935;19;20022;-58
2022/11/27 07:14:01;;;;;;;0.00;0.00;;;;;;;10.44;65.74;100175.16;7368515;19;20071;-58
2022/11/27 07:16:29;;;;;;;0.00;0.00;;;;;;;10.52;65.43;100188.81;7369754;19;20558;-58
2022/11/27 07:18:58;;;;;;;0.10;0.10;;;;;;;10.52;65.49;100191.41;7370628;19;20011;-56
2022/11/27 07:21:24;;;;;;;0.03;0.03;;;;;;;10.47;65.60;100184.63;7367542;19;20022;-58
2022/11/27 07:23:49;;;;;;;0.00;0.00;;;;;;;10.50;65.57;100197.59;7369322;19;20571;-58
2022/11/27 07:26:20;;;;;;;0.03;0.03;;;;;;;10.50;66.05;100193.22;7368645;19;20013;-58
2022/11/27 07:28:46;;;;;;;0.00;0.00;;;;;;;10.48;65.86;100181.09;7369482;19;20359;-58
2022/11/27 07:31:15;;;;;;;0.10;0.10;;;;;;;10.48;66.05;100181.09;7367205;19;20006;-59
2022/11/27 07:33:40;;;;;;;0.00;0.00;;;;;;;10.44;65.87;100180.38;7367957;19;20038;-58
2022/11/27 07:36:13;;;;;;;0.00;0.00;;;;;;;10.45;65.68;100166.41;7367711;19;20014;-58
2022/11/27 07:38:39;;;;;;;0.00;0.00;;;;;;;10.47;66.14;100167.22;7368862;19;20033;-58
2022/11/27 07:41:05;;;;;;;0.10;0.10;;;;;;;10.45;65.93;100161.19;7368899;19;22138;-58
2022/11/27 07:43:32;;;;;;;0.00;0.00;;;;;;;10.43;65.80;100167.34;7365525;19;20014;-58
2022/11/27 07:45:57;;;;;;;0.00;0.00;;;;;;;10.43;66.10;100167.34;7369326;19;20038;-58
2022/11/27 07:48:23;;;;;;;0.00;0.00;;;;;;;10.47;66.09;100180.25;7368311;19;20014;-58
2022/11/27 07:50:49;;;;;;;0.00;0.00;;;;;;;10.45;66.18;100171.63;7376580;19;20118;-58
2022/11/27 07:53:14;;;;;;;0.00;0.00;;;;;;;10.46;66.13;100178.56;7375536;19;20002;-57
2022/11/27 07:55:40;;;;;;;0.00;0.00;;;;;;;10.45;66.13;100170.78;7376006;19;20022;-58
2022/11/27 07:58:07;;;;;;;0.10;0.10;;;;;;;10.41;66.29;100170.00;7376335;19;20018;-57
2022/11/27 08:00:34;;;;;;;0.00;0.00;;;;;;;10.45;66.64;100179.47;7374485;19;20011;-58
2022/11/27 08:03:00;;;;;;;0.00;0.00;;;;;;;10.28;66.54;100150.38;7372873;19;20006;-59
2022/11/27 08:05:25;;;;;;;0.05;0.05;;;;;;;10.43;66.69;100180.41;7354998;19;21119;-58
2022/11/27 08:07:50;;;;;;;0.10;0.10;;;;;;;10.42;66.48;100169.09;7363715;19;20002;-57
2022/11/27 08:10:16;;;;;;;0.00;0.00;;;;;;;10.28;66.65;100147.78;7364196;19;20090;-59
2022/11/27 08:12:41;;;;;;;0.10;0.10;;;;;;;10.40;66.11;100165.69;7360824;19;20010;-58
2022/11/27 08:15:08;;;;;;;0.08;0.08;;;;;;;10.28;66.36;100147.78;7358227;19;20037;-58
2022/11/27 08:17:33;;;;;;;0.08;0.08;;;;;;;10.41;66.32;100161.31;7358363;19;20018;-59
2022/11/27 08:19:59;;;;;;;0.00;0.00;;;;;;;10.34;66.19;100158.03;7349776;19;20017;-58
2022/11/27 08:22:24;;;;;;;0.00;0.00;;;;;;;10.36;66.67;100158.84;7359274;19;20002;-58
2022/11/27 08:24:50;;;;;;;0.00;0.00;;;;;;;10.36;66.35;100161.47;7356078;19;20018;-57
2022/11/27 08:27:16;;;;;;;0.00;0.00;;;;;;;10.33;66.94;100153.72;7357019;19;20039;-58
2022/11/27 08:29:42;;;;;;;0.10;0.10;;;;;;;10.27;66.63;100151.31;7363669;19;20010;-58
2022/11/27 08:32:08;;;;;;;0.00;0.00;;;;;;;10.33;66.50;100156.31;7357004;19;20017;-58
2022/11/27 08:34:33;;;;;;;0.00;0.00;;;;;;;10.33;66.80;100162.41;7358157;19;20006;-56
2022/11/27 08:36:58;;;;;;;0.00;0.00;;;;;;;10.34;66.65;100163.25;7359285;19;21362;-58
2022/11/27 08:39:25;;;;;;;0.00;0.00;;;;;;;10.34;67.07;100158.03;7366091;19;20014;-59
2022/11/27 08:41:51;;;;;;;0.00;0.00;;;;;;;10.28;66.84;100150.38;7354493;19;20048;-56
2022/11/27 08:44:16;;;;;;;0.10;0.10;;;;;;;9.97;66.53;100088.66;7365998;19;20027;-59
2022/11/27 08:46:43;;;;;;;0.00;0.00;;;;;;;10.34;66.77;100158.03;7366068;19;20600;-57
2022/11/27 08:49:08;;;;;;;0.05;0.05;;;;;;;10.36;67.02;100164.94;7367001;19;20089;-58
2022/11/27 08:51:34;;;;;;;0.00;0.00;;;;;;;10.36;67.00;100172.75;7352608;19;20133;-59
2022/11/27 08:54:00;;;;;;;0.00;0.00;;;;;;;10.39;67.23;100171.78;7364469;19;20006;-58
2022/11/27 08:56:25;;;;;;;0.00;0.00;;;;;;;10.39;66.90;100163.97;7364879;19;19998;-58
2022/11/27 08:58:51;;;;;;;0.10;0.10;;;;;;;10.39;67.00;100154.41;7363852;19;20006;-59
2022/11/27 09:01:21;;;;;;;0.10;0.10;;;;;;;10.44;66.98;100156.88;7364159;19;20006;-59
2022/11/27 09:03:47;;;;;;;0.00;0.00;;;;;;;10.49;66.97;100162.81;7364192;19;20033;-58
2022/11/27 09:06:20;;;;;;;0.03;0.03;;;;;;;10.52;67.01;100160.09;7366519;19;20019;-59
2022/11/27 09:08:45;;;;;;;0.00;0.00;;;;;;;10.48;66.71;100150.63;7367841;19;20018;-59
2022/11/27 09:11:13;;;;;;;0.00;0.00;;;;;;;10.60;66.68;100154.63;7368453;19;20235;-59
2022/11/27 09:13:40;;;;;;;0.03;0.03;;;;;;;10.66;66.67;100164.88;7366539;19;20034;-58
2022/11/27 09:16:09;;;;;;;0.10;0.10;;;;;;;10.73;66.85;100155.09;7366518;19;20037;-58
2022/11/27 09:18:34;;;;;;;0.00;0.00;;;;;;;10.80;66.87;100161.84;7367170;19;20006;-58
2022/11/27 09:21:03;;;;;;;0.05;0.05;;;;;;;10.88;67.02;100167.66;7366305;19;20070;-58
2022/11/27 09:23:29;;;;;;;0.00;0.00;;;;;;;10.91;66.70;100150.13;7364417;19;20438;-59
2022/11/27 09:26:03;;;;;;;0.00;0.00;;;;;;;10.83;66.43;100126.00;7367819;19;20018;-57
2022/11/27 09:28:28;;;;;;;0.00;0.00;;;;;;;11.08;66.78;100157.41;7365913;19;20010;-59
2022/11/27 09:30:55;;;;;;;0.10;0.10;;;;;;;11.19;66.55;100162.25;7367254;19;20030;-59
2022/11/27 09:33:22;;;;;;;0.00;0.00;;;;;;;11.24;66.28;100149.03;7367116;19;20007;-58
2022/11/27 09:35:47;;;;;;;0.03;0.03;;;;;;;11.30;66.79;100157.50;7365029;19;20041;-58
2022/11/27 09:38:13;;;;;;;0.08;0.08;;;;;;;11.39;66.51;100151.13;7366943;19;20037;-58
2022/11/27 09:40:47;;;;;;;0.00;0.00;;;;;;;11.49;66.53;100141.19;7366163;19;20360;-56
2022/11/27 09:43:13;;;;;;;0.05;0.05;;;;;;;11.51;66.35;100129.81;7365380;19;20010;-58
2022/11/27 09:45:44;;;;;;;0.00;0.00;;;;;;;11.58;66.72;100097.28;7368243;19;20014;-58
2022/11/27 09:48:21;;;;;;;0.10;0.10;;;;;;;11.80;66.48;100122.63;7363806;19;20478;-59
2022/11/27 09:50:51;;;;;;;0.00;0.00;;;;;;;11.90;66.15;100122.28;7366471;19;20049;-58
2022/11/27 09:53:37;;;;;;;0.10;0.10;;;;;;;12.07;66.81;100129.50;7363727;19;20014;-58
2022/11/27 09:56:05;;;;;;;0.00;0.00;;;;;;;12.15;66.04;100127.44;7366342;19;20670;-58
2022/11/27 09:58:42;;;;;;;0.00;0.00;;;;;;;12.36;66.01;100124.88;7364204;19;20014;-58
2022/11/27 10:01:12;;;;;;;;;;;;;;;12.51;66.94;100134.75;7365897;19;20724;-58
2022/11/27 10:03:40;;;;;;;0.00;0.00;;;;;;;12.61;65.23;100127.38;7365503;19;19915;-59
2022/11/27 10:06:30;;;;;;;0.00;0.00;;;;;;;12.82;65.72;100136.16;7364185;19;20034;-58
2022/11/27 10:09:11;;;;;;;0.00;0.00;;;;;;;12.94;64.57;100133.03;7365648;19;20009;-59
2022/11/27 10:11:41;;;;;;;0.00;0.00;;;;;;;13.02;64.37;100117.81;7363673;19;20006;-59
2022/11/27 10:14:33;;;;;;;0.00;0.00;;;;;;;13.15;64.75;100108.53;7362527;19;20045;-57
2022/11/27 10:17:20;;;;;;;0.10;0.10;;;;;;;13.23;64.47;100106.47;7263027;19;2004370;-58
2022/11/27 10:19:57;;;;;;;0.10;0.10;;;;;;;13.36;63.86;100119.06;7363664;19;20010;-59
2022/11/27 10:22:41;;;;;;;0.10;0.10;;;;;;;13.53;63.68;100111.28;7363584;19;20848;-57
2022/11/27 10:25:28;;;;;;;0.00;0.00;;;;;;;13.73;64.95;100113.88;7363041;19;20011;-59
2022/11/27 10:28:03;;;;;;;0.08;0.08;;;;;;;13.97;64.65;100118.94;7364235;19;20015;-58
2022/11/27 10:30:31;;;;;;;0.03;0.03;;;;;;;14.12;61.88;100120.84;7364161;19;20010;-58
2022/11/27 10:32:59;;;;;;;0.00;0.00;;;;;;;14.22;61.74;100110.78;7362850;19;20007;-59
2022/11/27 10:35:25;;;;;;;;;;;;;;;14.35;63.42;100111.06;7364519;19;20006;-58
2022/11/27 10:37:58;;;;;;;0.00;0.00;;;;;;;14.30;61.13;100113.03;7362467;19;20579;-58
2022/11/27 10:40:29;;;;;;;0.10;0.10;;;;;;;14.22;59.97;100111.63;7361711;19;20010;-58
2022/11/27 10:43:13;;;;;;;0.00;0.00;;;;;;;14.10;60.62;100112.22;7362835;19;20368;-58
2022/11/27 10:45:47;;;;;;;0.10;0.10;;;;;;;14.01;60.88;100112.63;7363134;19;20363;-59
2022/11/27 10:48:14;;;;;;;0.00;0.00;;;;;;;13.76;60.20;100087.50;7368040;19;20003;-59
2022/11/27 10:50:40;;;;;;;0.00;0.00;;;;;;;13.76;60.18;100097.16;7369586;19;20026;-58
2022/11/27 10:53:14;;;;;;;0.10;0.10;;;;;;;13.69;60.39;100086.09;7368774;19;20006;-59
2022/11/27 10:56:11;;;;;;;0.03;0.03;;;;;;;13.62;61.24;100084.63;7369493;19;20014;-58
2022/11/27 10:58:45;;;;;;;0.10;0.10;;;;;;;13.48;60.40;100093.16;7264107;19;2004301;-58
2022/11/27 11:01:17;;;;;;;0.10;0.10;;;;;;;13.32;61.48;100073.75;7369633;19;20002;-58
2022/11/27 11:03:43;;;;;;;0.05;0.05;;;;;;;13.43;61.25;100091.63;7368442;19;20011;-58
2022/11/27 11:06:30;;;;;;;0.00;0.00;;;;;;;13.56;62.59;100084.06;7370793;19;20480;-58
2022/11/27 11:09:05;;;;;;;0.10;0.10;;;;;;;13.66;62.13;100086.22;7264489;19;2004446;-58
2022/11/27 11:11:31;;;;;;;0.10;0.10;;;;;;;13.77;61.50;100080.47;7369667;19;20021;-59
2022/11/27 11:13:57;;;;;;;0.00;0.00;;;;;;;13.92;61.69;100061.41;7367343;19;20026;-59
2022/11/27 11:16:29;;;;;;;0.00;0.00;;;;;;;14.20;62.33;100074.09;7368557;19;20023;-58
2022/11/27 11:18:55;;;;;;;0.10;0.10;;;;;;;14.45;61.80;100071.13;7369885;19;20056;-59
2022/11/27 11:21:47;;;;;;;0.10;0.10;;;;;;;14.75;62.21;100063.53;7368578;19;20027;-57
2022/11/27 11:24:27;;;;;;;0.10;0.10;;;;;;;14.88;60.39;100058.50;7368246;19;20015;-58
2022/11/27 11:26:55;;;;;;;0.10;0.10;;;;;;;14.98;58.41;100053.63;7368429;19;20723;-58
2022/11/27 11:29:40;;;;;;;0.10;0.10;;;;;;;14.98;59.48;100043.13;7368960;19;20011;-58
2022/11/27 11:32:06;;;;;;;0.10;0.10;;;;;;;14.98;58.50;100054.47;7369385;19;20018;-58